Roanoke Rapids, North Carolina
Current Conditions -  °F | °C
As of 12:55 PM on Friday 21 Nov 2014 (Local Time) from KIXA Reporting Station
Clear Clear  
Wind Chill: 38°   Ceiling: Unl
Heat Index: 45°   Visibility: 10mi
Dew Point: 14°   Wind: 13mph
Humidity: 29%   Direction: 340°NNW
Pressure: 30.43"   Gusts: 18mph
Location:  36.48°N, 77.65°W
Report Text: KIXA 211755Z AUTO 34011G16KT 10SM CLR 07/M10 A3043 RMK AO2
Loading
Personal Weather Stations






























Interactive Weather Map New forecast layout! Learn more

10-Day Weather Forecast

Advertisements
Track Severe Weather on mobile